createdAt,value
2019-06-01T00:00:11.085Z,3
2019-06-01T00:05:01.427Z,2
2019-06-01T00:10:02.208Z,2
2019-06-01T00:15:01.660Z,3
2019-06-01T00:20:02.071Z,3
2019-06-01T00:25:01.443Z,4
2019-06-01T00:30:01.818Z,4
2019-06-01T00:35:02.218Z,4
2019-06-01T00:40:02.063Z,4
2019-06-01T00:45:01.623Z,4
2019-06-01T00:50:02.071Z,3
2019-06-01T00:55:01.404Z,3
2019-06-01T01:00:01.741Z,4
2019-06-01T01:05:01.378Z,4
2019-06-01T01:10:02.252Z,3
2019-06-01T01:15:02.065Z,4
2019-06-01T01:20:01.749Z,4
2019-06-01T01:25:02.142Z,3
2019-06-01T01:30:01.465Z,3
2019-06-01T01:35:01.889Z,2
2019-06-01T01:40:01.750Z,3
2019-06-01T01:45:02.128Z,2
2019-06-01T01:50:03.074Z,3
2019-06-01T01:55:01.550Z,4
2019-06-01T02:00:01.943Z,4
2019-06-01T02:05:02.220Z,4
2019-06-01T02:10:02.091Z,4
2019-06-01T02:15:02.225Z,3
2019-06-01T02:20:02.560Z,4
2019-06-01T02:25:02.236Z,3
2019-06-01T02:30:04.813Z,3
2019-06-01T02:35:02.660Z,4
2019-06-01T02:40:03.224Z,3
2019-06-01T02:45:03.650Z,4
2019-06-01T02:50:01.450Z,3
2019-06-01T02:55:02.348Z,4
2019-06-01T03:00:02.729Z,3
2019-06-01T03:05:01.416Z,3
2019-06-01T03:10:03.094Z,3
2019-06-01T03:15:02.663Z,4
2019-06-01T03:20:03.238Z,3
2019-06-01T03:25:02.140Z,3
2019-06-01T03:30:05.321Z,4
2019-06-01T03:35:02.718Z,4
2019-06-01T03:40:05.645Z,3
2019-06-01T03:45:01.803Z,5
2019-06-01T03:50:02.989Z,3
2019-06-01T03:55:01.850Z,5
2019-06-01T04:00:03.307Z,4
2019-06-01T04:05:03.352Z,3
2019-06-01T04:10:01.817Z,4
2019-06-01T04:15:08.386Z,3
2019-06-01T04:20:02.125Z,4
2019-06-01T04:25:02.062Z,4
2019-06-01T04:30:02.553Z,4
2019-06-01T04:35:03.341Z,5
2019-06-01T04:40:01.361Z,3
2019-06-01T04:45:01.383Z,4
2019-06-01T04:50:01.741Z,4
2019-06-01T04:55:02.165Z,4
2019-06-01T05:00:01.477Z,3
2019-06-01T05:05:02.278Z,4
2019-06-01T05:10:02.058Z,3
2019-06-01T05:15:01.470Z,3
2019-06-01T05:20:01.924Z,4
2019-06-01T05:25:02.325Z,4
2019-06-01T05:30:01.763Z,2
2019-06-01T05:35:02.132Z,5
2019-06-01T05:40:01.934Z,4
2019-06-01T05:45:02.297Z,2
2019-06-01T05:50:01.649Z,3
2019-06-01T05:55:01.997Z,4
2019-06-01T06:00:01.344Z,3
2019-06-01T06:05:01.959Z,4
2019-06-01T06:10:01.823Z,3
2019-06-01T06:15:01.696Z,3
2019-06-01T06:20:02.119Z,6
2019-06-01T06:25:01.442Z,4
2019-06-01T06:30:01.935Z,3
2019-06-01T06:35:02.312Z,3
2019-06-01T06:40:02.087Z,3
2019-06-01T06:45:03.548Z,4
2019-06-01T06:50:02.273Z,3
2019-06-01T06:55:01.627Z,4
2019-06-01T07:00:01.963Z,3
2019-06-01T07:05:01.591Z,2
2019-06-01T07:10:01.328Z,3
2019-06-01T07:15:01.985Z,3
2019-06-01T07:20:01.485Z,3
2019-06-01T07:25:01.902Z,4
2019-06-01T07:30:02.301Z,2
2019-06-01T07:35:01.912Z,3
2019-06-01T07:40:01.794Z,2
2019-06-01T07:45:02.426Z,4
2019-06-01T07:50:01.820Z,4
2019-06-01T07:55:02.204Z,3
2019-06-01T08:00:01.527Z,3
2019-06-01T08:05:02.145Z,3
2019-06-01T08:10:01.923Z,3
2019-06-01T08:15:02.254Z,4
2019-06-01T08:20:01.661Z,3
2019-06-01T08:25:02.047Z,1
2019-06-01T08:30:01.380Z,3
2019-06-01T08:35:08.423Z,3
2019-06-01T08:40:02.219Z,3
2019-06-01T08:45:01.698Z,3
2019-06-01T08:50:02.099Z,4
2019-06-01T08:55:01.418Z,2
2019-06-01T09:00:01.733Z,3
2019-06-01T09:05:01.353Z,3
2019-06-01T09:10:02.177Z,3
2019-06-01T09:15:02.179Z,2
2019-06-01T09:20:01.530Z,3
2019-06-01T09:25:01.916Z,4
2019-06-01T09:30:02.292Z,3
2019-06-01T09:35:01.630Z,4
2019-06-01T09:40:01.367Z,3
2019-06-01T09:45:01.750Z,4
2019-06-01T09:50:02.125Z,3
2019-06-01T09:55:01.441Z,4
2019-06-01T10:00:02.005Z,2
2019-06-01T10:05:01.744Z,2
2019-06-01T10:10:01.547Z,3
2019-06-01T10:15:01.573Z,3
2019-06-01T10:20:02.172Z,4
2019-06-01T10:25:01.523Z,4
2019-06-01T10:30:01.951Z,4
2019-06-01T10:35:02.308Z,2
2019-06-01T10:40:02.089Z,2
2019-06-01T10:45:01.431Z,2
2019-06-01T10:50:01.833Z,2
2019-06-01T10:55:02.216Z,3
2019-06-01T11:00:01.554Z,3
2019-06-01T11:05:02.184Z,3
2019-06-01T11:10:01.948Z,4
2019-06-01T11:15:01.927Z,3
2019-06-01T11:20:01.423Z,3
2019-06-01T11:25:01.815Z,3
2019-06-01T11:30:02.246Z,2
2019-06-01T11:35:01.598Z,3
2019-06-01T11:40:01.372Z,3
2019-06-01T11:45:01.727Z,3
2019-06-01T11:50:02.102Z,2
2019-06-01T11:55:01.428Z,3
2019-06-01T12:00:01.745Z,2
2019-06-01T12:05:01.375Z,3
2019-06-01T12:10:02.151Z,4
2019-06-01T12:15:02.190Z,2
2019-06-01T12:20:01.654Z,3
2019-06-01T12:25:02.176Z,3
2019-06-01T12:30:01.551Z,3
2019-06-01T12:35:03.270Z,3
2019-06-01T12:40:01.422Z,3
2019-06-01T12:45:02.222Z,3
2019-06-01T12:50:02.035Z,3
2019-06-01T12:55:01.400Z,4
2019-06-01T13:00:01.905Z,4
2019-06-01T13:05:01.610Z,3
2019-06-01T13:10:01.381Z,4
2019-06-01T13:15:02.000Z,2
2019-06-01T13:20:01.423Z,2
2019-06-01T13:25:01.816Z,2
2019-06-01T13:30:02.241Z,4
2019-06-01T13:35:01.544Z,2
2019-06-01T13:40:01.273Z,4
2019-06-01T13:45:02.030Z,3
2019-06-01T13:50:05.545Z,3
2019-06-01T13:55:01.828Z,4
2019-06-01T14:00:02.157Z,3
2019-06-01T14:05:01.861Z,4
2019-06-01T14:10:01.655Z,4
2019-06-01T14:15:01.635Z,3
2019-06-01T14:20:02.121Z,4
2019-06-01T14:25:12.764Z,3
2019-06-01T14:30:02.357Z,3
2019-06-01T14:35:01.740Z,2
2019-06-01T14:40:01.483Z,4
2019-06-01T14:45:01.848Z,4
2019-06-01T14:50:02.221Z,4
2019-06-01T14:55:01.568Z,3
2019-06-01T15:00:01.917Z,2
2019-06-01T15:05:01.562Z,5
2019-06-01T15:10:01.352Z,2
2019-06-01T15:15:03.005Z,4
2019-06-01T15:20:02.668Z,2
2019-06-01T15:25:03.566Z,3
2019-06-01T15:30:03.246Z,4
2019-06-01T15:35:03.285Z,3
2019-06-01T15:40:03.059Z,3
2019-06-01T15:45:01.599Z,4
2019-06-01T15:50:02.590Z,2
2019-06-01T15:55:02.881Z,4
2019-06-01T16:00:01.323Z,2
2019-06-01T16:05:03.271Z,4
2019-06-01T16:10:06.548Z,4
2019-06-01T16:15:02.192Z,4
2019-06-01T16:20:02.390Z,3
2019-06-01T16:25:02.557Z,4
2019-06-01T16:30:03.840Z,3
2019-06-01T16:35:02.729Z,4
2019-06-01T16:40:04.339Z,4
2019-06-01T16:45:01.781Z,2
2019-06-01T16:50:02.169Z,4
2019-06-01T16:55:02.749Z,3
2019-06-01T17:00:02.778Z,4
2019-06-01T17:05:02.851Z,3
2019-06-01T17:10:19.488Z,4
2019-06-01T17:15:03.153Z,4
2019-06-01T17:20:01.754Z,4
2019-06-01T17:25:02.110Z,4
2019-06-01T17:30:06.402Z,5
2019-06-01T17:35:03.291Z,4
2019-06-01T17:40:02.497Z,3
2019-06-01T17:45:04.119Z,4
2019-06-01T17:50:02.683Z,4
2019-06-01T17:55:03.235Z,4
2019-06-01T18:00:01.865Z,4
2019-06-01T18:05:02.018Z,4
2019-06-01T18:10:02.415Z,3
2019-06-01T18:15:02.306Z,5
2019-06-01T18:20:02.451Z,5
2019-06-01T18:25:02.536Z,4
2019-06-01T18:30:02.809Z,5
2019-06-01T18:35:03.056Z,3
2019-06-01T18:40:03.778Z,3
2019-06-01T18:45:03.488Z,3
2019-06-01T18:50:02.594Z,5
2019-06-01T18:55:02.302Z,3
2019-06-01T19:00:01.614Z,5
2019-06-01T19:05:02.427Z,5
2019-06-01T19:10:02.295Z,3
2019-06-01T19:15:02.510Z,4
2019-06-01T19:20:03.867Z,4
2019-06-01T19:25:01.651Z,5
2019-06-01T19:30:02.298Z,5
2019-06-01T19:35:01.874Z,3
2019-06-01T19:40:01.675Z,5
2019-06-01T19:45:02.689Z,5
2019-06-01T19:50:02.320Z,4
2019-06-01T19:55:01.680Z,3
2019-06-01T20:00:02.307Z,5
2019-06-01T20:05:02.023Z,4
2019-06-01T20:10:02.009Z,3
2019-06-01T20:15:01.896Z,4
2019-06-01T20:20:02.609Z,5
2019-06-01T20:25:02.116Z,5
2019-06-01T20:30:01.935Z,5
2019-06-01T20:35:01.819Z,5
2019-06-01T20:40:01.723Z,5
2019-06-01T20:45:02.108Z,5
2019-06-01T20:50:01.492Z,6
2019-06-01T20:55:02.118Z,5
2019-06-01T21:00:01.441Z,6
2019-06-01T21:05:02.400Z,5
2019-06-01T21:10:02.190Z,6
2019-06-01T21:15:01.457Z,6
2019-06-01T21:20:04.676Z,6
2019-06-01T21:25:01.312Z,7
2019-06-01T21:30:01.996Z,6
2019-06-01T21:35:01.349Z,7
2019-06-01T21:40:02.147Z,5
2019-06-01T21:45:01.504Z,5
2019-06-01T21:50:01.859Z,5
2019-06-01T21:55:02.249Z,7
2019-06-01T22:00:01.614Z,7
2019-06-01T22:05:02.254Z,7
2019-06-01T22:10:02.021Z,7
2019-06-01T22:15:02.218Z,8
2019-06-01T22:20:01.583Z,6
2019-06-01T22:25:01.942Z,7
2019-06-01T22:30:01.885Z,7
2019-06-01T22:35:02.850Z,8
2019-06-01T22:40:02.176Z,8
2019-06-01T22:45:02.273Z,7
2019-06-01T22:50:01.614Z,8
2019-06-01T22:55:02.176Z,8
2019-06-01T23:00:01.562Z,6
2019-06-01T23:05:02.222Z,8
2019-06-01T23:10:01.990Z,8
2019-06-01T23:15:02.128Z,8
2019-06-01T23:20:01.534Z,8
2019-06-01T23:25:01.887Z,9
2019-06-01T23:30:02.199Z,8
2019-06-01T23:35:01.496Z,8
2019-06-01T23:40:02.257Z,7
2019-06-01T23:45:01.591Z,7
2019-06-01T23:50:01.949Z,8
2019-06-01T23:55:02.319Z,9
